createdAt,value
2022-10-18T00:02:13.708Z,8.21
2022-10-18T00:04:40.258Z,8.18
2022-10-18T00:07:06.867Z,8.18
2022-10-18T00:09:33.611Z,8.17
2022-10-18T00:12:00.778Z,8.14
2022-10-18T00:14:27.327Z,8.12
2022-10-18T00:16:53.959Z,8.10
2022-10-18T00:19:20.472Z,8.07
2022-10-18T00:21:50.656Z,8.06
2022-10-18T00:24:17.304Z,8.04
2022-10-18T00:26:43.826Z,8.01
2022-10-18T00:29:14.186Z,7.98
2022-10-18T00:31:42.662Z,7.94
2022-10-18T00:34:14.997Z,7.90
2022-10-18T00:36:42.887Z,7.89
2022-10-18T00:39:15.576Z,7.87
2022-10-18T00:41:42.226Z,7.86
2022-10-18T00:44:11.695Z,7.84
2022-10-18T00:46:43.551Z,7.83
2022-10-18T00:49:21.808Z,7.81
2022-10-18T00:51:51.587Z,7.79
2022-10-18T00:54:19.562Z,7.77
2022-10-18T00:56:46.496Z,7.76
2022-10-18T00:59:17.981Z,7.75
2022-10-18T01:01:45.379Z,7.74
2022-10-18T01:04:14.734Z,7.71
2022-10-18T01:09:32.279Z,7.63
2022-10-18T01:12:28.957Z,7.65
2022-10-18T01:15:15.382Z,7.63
2022-10-18T01:17:54.754Z,7.60
2022-10-18T01:20:55.249Z,7.58
2022-10-18T01:23:41.975Z,7.55
2022-10-18T01:26:50.515Z,7.54
2022-10-18T01:29:16.957Z,7.52
2022-10-18T01:31:50.414Z,7.42
2022-10-18T01:34:18.789Z,7.43
2022-10-18T01:36:51.964Z,7.41
2022-10-18T01:39:29.449Z,7.38
2022-10-18T01:41:58.451Z,7.36
2022-10-18T01:44:29.443Z,7.33
2022-10-18T01:46:58.192Z,7.31
2022-10-18T01:49:25.861Z,7.31
2022-10-18T01:51:53.255Z,7.27
2022-10-18T01:54:27.663Z,7.24
2022-10-18T01:57:03.574Z,7.22
2022-10-18T02:00:01.727Z,7.19
2022-10-18T02:02:28.348Z,7.17
2022-10-18T02:04:54.894Z,7.15
2022-10-18T02:07:21.314Z,7.11
2022-10-18T02:09:58.227Z,7.09
2022-10-18T02:12:26.065Z,7.05
2022-10-18T02:14:53.304Z,7.03
2022-10-18T02:17:21.737Z,6.99
2022-10-18T02:19:51.844Z,6.96
2022-10-18T02:22:19.511Z,6.93
2022-10-18T02:24:55.157Z,6.92
2022-10-18T02:27:22.460Z,6.89
2022-10-18T02:29:49.545Z,6.89
2022-10-18T02:32:34.067Z,6.85
2022-10-18T02:35:06.797Z,6.83
2022-10-18T02:37:38.056Z,6.79
2022-10-18T02:40:07.323Z,6.73
2022-10-18T02:42:39.090Z,6.76
2022-10-18T02:45:06.797Z,6.74
2022-10-18T02:47:33.508Z,6.71
2022-10-18T02:50:00.356Z,6.70
2022-10-18T02:52:26.824Z,6.68
2022-10-18T02:54:53.355Z,6.64
2022-10-18T02:57:19.881Z,6.63
2022-10-18T02:59:46.629Z,6.61
2022-10-18T03:02:13.134Z,6.61
2022-10-18T03:04:39.639Z,6.56
2022-10-18T03:07:06.163Z,6.54
2022-10-18T03:09:32.699Z,6.52
2022-10-18T03:11:59.665Z,6.49
2022-10-18T03:14:26.155Z,6.44
2022-10-18T03:16:52.717Z,6.46
2022-10-18T03:19:19.214Z,6.43
2022-10-18T03:21:45.754Z,6.40
2022-10-18T03:24:12.323Z,6.42
2022-10-18T03:26:38.826Z,6.36
2022-10-18T03:29:05.457Z,6.34
2022-10-18T03:31:32.379Z,6.32
2022-10-18T03:33:59.031Z,6.30
2022-10-18T03:36:27.633Z,6.25
2022-10-18T03:38:54.162Z,6.23
2022-10-18T03:41:20.924Z,6.21
2022-10-18T03:43:47.732Z,6.22
2022-10-18T03:46:14.300Z,6.19
2022-10-18T03:48:40.819Z,6.19
2022-10-18T03:51:07.531Z,6.17
2022-10-18T03:53:34.007Z,6.13
2022-10-18T03:56:00.489Z,6.13
2022-10-18T03:58:27.021Z,6.10
2022-10-18T04:00:55.256Z,6.06
2022-10-18T04:03:24.237Z,6.05
2022-10-18T04:05:51.074Z,5.99
2022-10-18T04:08:18.223Z,5.98
2022-10-18T04:10:45.499Z,5.97
2022-10-18T04:13:12.119Z,5.95
2022-10-18T04:15:38.722Z,5.92
2022-10-18T04:18:05.218Z,5.92
2022-10-18T04:20:31.697Z,5.90
2022-10-18T04:22:58.358Z,5.90
2022-10-18T04:25:25.282Z,5.90
2022-10-18T04:27:52.115Z,5.87
2022-10-18T04:30:18.612Z,5.88
2022-10-18T04:32:45.073Z,5.85
2022-10-18T04:35:11.614Z,5.83
2022-10-18T04:37:38.177Z,5.85
2022-10-18T04:40:05.313Z,5.83
2022-10-18T04:42:31.958Z,5.84
2022-10-18T04:44:58.438Z,5.85
2022-10-18T04:47:24.950Z,5.86
2022-10-18T04:49:51.422Z,5.90
2022-10-18T04:52:17.905Z,5.94
2022-10-18T04:54:44.384Z,5.96
2022-10-18T04:57:10.856Z,5.98
2022-10-18T04:59:37.476Z,6.01
2022-10-18T05:02:04.837Z,6.05
2022-10-18T05:04:31.510Z,6.09
2022-10-18T05:06:58.021Z,6.12
2022-10-18T05:09:24.887Z,6.09
2022-10-18T05:11:51.541Z,6.14
2022-10-18T05:14:18.192Z,6.15
2022-10-18T05:16:44.702Z,6.17
2022-10-18T05:19:11.180Z,6.22
2022-10-18T05:21:37.963Z,6.19
2022-10-18T05:24:04.708Z,6.24
2022-10-18T05:26:33.972Z,6.19
2022-10-18T05:29:00.617Z,6.30
2022-10-18T05:31:27.276Z,6.32
2022-10-18T05:33:53.748Z,6.35
2022-10-18T05:36:20.348Z,6.35
2022-10-18T05:38:48.276Z,6.34
2022-10-18T05:41:15.147Z,6.42
2022-10-18T05:43:41.650Z,6.45
2022-10-18T05:46:13.723Z,6.49
2022-10-18T05:48:43.417Z,6.52
2022-10-18T05:51:09.916Z,6.54
2022-10-18T05:53:37.442Z,6.51
2022-10-18T05:56:04.624Z,6.49
2022-10-18T05:58:31.176Z,6.60
2022-10-18T06:01:01.999Z,6.61
2022-10-18T06:03:30.520Z,6.62
2022-10-18T06:06:04.322Z,6.64
2022-10-18T06:08:30.947Z,6.67
2022-10-18T06:10:57.522Z,6.68
2022-10-18T06:13:24.308Z,6.65
2022-10-18T06:15:50.869Z,6.71
2022-10-18T06:18:17.453Z,6.75
2022-10-18T06:20:43.974Z,6.75
2022-10-18T06:23:10.504Z,6.74
2022-10-18T06:25:37.070Z,6.75
2022-10-18T06:28:09.041Z,6.76
2022-10-18T06:30:38.000Z,6.72
2022-10-18T06:33:04.454Z,6.76
2022-10-18T06:35:31.036Z,6.78
2022-10-18T06:37:57.794Z,6.79
2022-10-18T06:40:24.608Z,6.82
2022-10-18T06:43:00.126Z,6.85
2022-10-18T06:45:26.875Z,6.85
2022-10-18T06:47:53.325Z,6.88
2022-10-18T06:50:19.775Z,6.89
2022-10-18T06:52:48.555Z,6.93
2022-10-18T06:55:15.159Z,6.93
2022-10-18T06:57:41.616Z,6.94
2022-10-18T07:00:09.022Z,6.95
2022-10-18T07:02:35.649Z,6.95
2022-10-18T07:05:02.158Z,6.94
2022-10-18T07:07:31.864Z,7.03
2022-10-18T07:09:58.758Z,7.05
2022-10-18T07:12:25.389Z,7.07
2022-10-18T07:14:51.977Z,7.09
2022-10-18T07:17:18.487Z,7.10
2022-10-18T07:19:45.004Z,7.10
2022-10-18T07:22:11.565Z,7.06
2022-10-18T07:24:38.073Z,7.11
2022-10-18T07:27:04.987Z,7.12
2022-10-18T07:29:31.978Z,7.12
2022-10-18T07:31:58.451Z,7.15
2022-10-18T07:34:25.002Z,7.13
2022-10-18T07:36:52.180Z,7.21
2022-10-18T07:39:18.736Z,7.24
2022-10-18T07:41:45.246Z,7.25
2022-10-18T07:44:11.741Z,7.27
2022-10-18T07:46:38.344Z,7.27
2022-10-18T07:49:04.858Z,7.31
2022-10-18T07:51:32.823Z,7.34
2022-10-18T07:53:59.609Z,7.31
2022-10-18T07:56:26.095Z,7.35
2022-10-18T07:58:54.386Z,7.40
2022-10-18T08:01:22.902Z,7.43
2022-10-18T08:03:50.159Z,7.49
2022-10-18T08:06:18.618Z,7.53
2022-10-18T08:08:45.878Z,7.58
2022-10-18T08:11:21.027Z,7.64
2022-10-18T08:13:47.853Z,7.71
2022-10-18T08:16:23.819Z,7.76
2022-10-18T08:18:50.899Z,7.75
2022-10-18T08:21:19.138Z,7.81
2022-10-18T08:23:46.261Z,7.88
2022-10-18T08:26:15.783Z,7.94
2022-10-18T08:28:49.125Z,8.01
2022-10-18T08:31:20.894Z,8.09
2022-10-18T08:33:47.526Z,8.16
2022-10-18T08:36:16.120Z,8.23
2022-10-18T08:38:43.698Z,8.31
2022-10-18T08:41:35.216Z,8.35
2022-10-18T08:44:24.726Z,8.42
2022-10-18T08:46:55.404Z,8.43
2022-10-18T08:49:46.804Z,8.55
2022-10-18T08:52:18.411Z,8.58
2022-10-18T08:54:55.854Z,8.69
2022-10-18T08:57:22.439Z,8.80
2022-10-18T08:59:49.029Z,8.89
2022-10-18T09:02:31.843Z,8.98
2022-10-18T09:05:28.259Z,9.11
2022-10-18T09:07:54.749Z,9.20
2022-10-18T09:10:59.714Z,9.25
2022-10-18T09:13:37.884Z,9.30
2022-10-18T09:16:11.122Z,9.41
2022-10-18T09:18:57.670Z,9.47
2022-10-18T09:21:36.948Z,9.45
2022-10-18T09:24:19.882Z,9.52
2022-10-18T09:26:49.051Z,9.65
2022-10-18T09:29:33.126Z,9.70
2022-10-18T09:32:12.447Z,9.79
2022-10-18T09:34:51.185Z,9.84
2022-10-18T09:37:21.038Z,9.94
2022-10-18T09:39:50.908Z,10.05
2022-10-18T09:42:26.980Z,10.12
2022-10-18T09:45:00.920Z,10.21
2022-10-18T09:47:41.544Z,10.33
2022-10-18T09:50:19.907Z,10.45
2022-10-18T09:52:58.828Z,10.62
2022-10-18T09:55:32.550Z,10.78
2022-10-18T09:58:02.770Z,10.94
2022-10-18T10:00:35.188Z,11.03
2022-10-18T10:03:02.686Z,11.10
2022-10-18T10:05:29.569Z,11.19
2022-10-18T10:07:59.993Z,11.28
2022-10-18T10:10:29.867Z,11.45
2022-10-18T10:13:06.943Z,11.59
2022-10-18T10:15:38.169Z,11.79
2022-10-18T10:18:22.162Z,12.01
2022-10-18T10:20:52.799Z,12.29
2022-10-18T10:23:30.735Z,12.59
2022-10-18T10:26:01.813Z,12.78
2022-10-18T10:28:31.619Z,13.02
2022-10-18T10:31:17.724Z,13.17
2022-10-18T10:33:47.629Z,13.45
2022-10-18T10:36:20.468Z,13.65
2022-10-18T10:39:04.128Z,13.95
2022-10-18T10:44:02.613Z,14.36
2022-10-18T10:46:36.664Z,14.57
2022-10-18T10:49:35.066Z,14.79
2022-10-18T10:52:08.548Z,15.06
2022-10-18T10:54:39.278Z,15.35
2022-10-18T10:57:16.609Z,15.56
2022-10-18T10:59:46.557Z,15.78
2022-10-18T11:02:15.407Z,15.97
2022-10-18T11:04:42.987Z,16.11
2022-10-18T11:07:10.263Z,16.32
2022-10-18T11:09:49.509Z,16.55
2022-10-18T11:12:25.564Z,16.74
2022-10-18T11:15:10.226Z,16.93
2022-10-18T11:17:40.795Z,17.06
2022-10-18T11:20:09.808Z,17.12
2022-10-18T11:22:45.013Z,17.30
2022-10-18T11:25:15.585Z,17.41
2022-10-18T11:27:54.734Z,17.52
2022-10-18T11:30:38.714Z,17.68
2022-10-18T11:33:17.934Z,17.85
2022-10-18T11:35:47.899Z,17.94
2022-10-18T11:38:21.738Z,18.01
2022-10-18T11:41:00.580Z,18.10
2022-10-18T11:44:00.682Z,18.22
2022-10-18T11:46:54.640Z,18.27
2022-10-18T11:49:39.144Z,18.27
2022-10-18T11:52:29.802Z,18.32
2022-10-18T11:55:06.578Z,18.37
2022-10-18T11:58:00.003Z,18.36
2022-10-18T12:00:46.852Z,18.44
2022-10-18T12:03:20.198Z,18.46
2022-10-18T12:05:50.694Z,18.50
2022-10-18T12:08:30.699Z,18.49
2022-10-18T12:11:05.500Z,18.49
2022-10-18T12:13:48.827Z,18.47
2022-10-18T12:16:33.533Z,18.47
2022-10-18T12:19:15.089Z,18.51
2022-10-18T12:21:43.770Z,18.49
2022-10-18T12:24:18.649Z,18.43
2022-10-18T12:26:48.787Z,18.40
2022-10-18T12:29:33.397Z,18.44
2022-10-18T12:32:07.528Z,18.43
2022-10-18T12:34:46.709Z,18.41
2022-10-18T12:37:32.801Z,18.38
2022-10-18T12:40:14.251Z,18.32
2022-10-18T12:42:47.204Z,18.25
2022-10-18T12:45:20.745Z,18.19
2022-10-18T12:47:47.658Z,18.01
2022-10-18T12:50:31.367Z,17.95
2022-10-18T12:53:04.222Z,17.86
2022-10-18T12:55:36.916Z,17.82
2022-10-18T12:58:21.947Z,17.72
2022-10-18T13:00:49.318Z,17.69
2022-10-18T13:03:17.407Z,17.61
2022-10-18T13:05:55.256Z,17.50
2022-10-18T13:08:34.288Z,17.46
2022-10-18T13:11:10.596Z,17.41
2022-10-18T13:13:45.868Z,17.32
2022-10-18T13:16:23.213Z,17.30
2022-10-18T13:18:57.333Z,17.25
2022-10-18T13:21:34.907Z,17.20
2022-10-18T13:24:22.556Z,17.17
2022-10-18T13:27:18.097Z,17.13
2022-10-18T13:29:56.779Z,17.13
2022-10-18T13:32:37.619Z,17.12
2022-10-18T13:35:34.127Z,17.10
2022-10-18T13:38:01.665Z,17.09
2022-10-18T13:40:29.451Z,17.00
2022-10-18T13:42:56.340Z,17.06
2022-10-18T13:45:33.522Z,17.08
2022-10-18T13:48:19.472Z,17.09
2022-10-18T13:50:49.758Z,17.07
2022-10-18T13:53:25.160Z,17.01
2022-10-18T13:55:56.040Z,17.09
2022-10-18T13:58:33.636Z,17.09
2022-10-18T14:01:14.370Z,17.10
2022-10-18T14:04:00.508Z,17.10
2022-10-18T14:06:33.821Z,17.12
2022-10-18T14:09:25.649Z,17.07
2022-10-18T14:12:16.830Z,17.15
2022-10-18T14:14:46.004Z,17.14
2022-10-18T14:17:20.391Z,17.16
2022-10-18T14:19:56.877Z,17.18
2022-10-18T14:22:33.957Z,17.24
2022-10-18T14:25:01.341Z,17.26
2022-10-18T14:27:33.093Z,17.30
2022-10-18T14:30:10.471Z,17.32
2022-10-18T14:32:37.566Z,17.36
2022-10-18T14:37:54.326Z,17.48
2022-10-18T14:40:30.837Z,17.53
2022-10-18T14:43:03.539Z,17.57
2022-10-18T14:45:30.479Z,17.66
2022-10-18T14:48:06.305Z,17.68
2022-10-18T14:50:33.851Z,17.69
2022-10-18T14:53:07.243Z,17.80
2022-10-18T14:55:35.636Z,17.92
2022-10-18T14:58:03.158Z,18.07
2022-10-18T15:00:36.267Z,18.21
2022-10-18T15:03:07.463Z,18.33
2022-10-18T15:05:34.448Z,18.38
2022-10-18T15:08:01.881Z,18.41
2022-10-18T15:10:32.669Z,18.47
2022-10-18T15:13:11.280Z,18.41
2022-10-18T15:15:39.499Z,18.32
2022-10-18T15:18:08.648Z,18.32
2022-10-18T15:20:42.825Z,18.30
2022-10-18T15:23:24.435Z,18.21
2022-10-18T15:25:53.995Z,18.12
2022-10-18T15:28:31.530Z,17.98
2022-10-18T15:30:59.087Z,17.86
2022-10-18T15:33:27.679Z,17.84
2022-10-18T15:35:55.245Z,17.74
2022-10-18T15:38:27.903Z,17.64
2022-10-18T15:40:56.597Z,17.59
2022-10-18T15:43:24.236Z,17.49
2022-10-18T15:45:55.584Z,17.41
2022-10-18T15:48:30.925Z,17.36
2022-10-18T15:51:05.327Z,17.29
2022-10-18T15:53:38.245Z,17.21
2022-10-18T15:56:07.112Z,17.12
2022-10-18T15:58:40.037Z,17.11
2022-10-18T16:01:16.412Z,17.08
2022-10-18T16:03:44.275Z,17.04
2022-10-18T16:06:15.882Z,16.97
2022-10-18T16:08:48.971Z,16.88
2022-10-18T16:11:22.204Z,16.72
2022-10-18T16:13:49.746Z,16.68
2022-10-18T16:16:20.654Z,16.61
2022-10-18T16:18:48.126Z,16.53
2022-10-18T16:21:18.156Z,16.48
2022-10-18T16:23:45.940Z,16.39
2022-10-18T16:26:13.916Z,16.28
2022-10-18T16:28:41.784Z,16.23
2022-10-18T16:31:13.241Z,16.20
2022-10-18T16:33:40.550Z,16.13
2022-10-18T16:36:07.958Z,16.06
2022-10-18T16:38:37.301Z,16.01
2022-10-18T16:41:05.755Z,15.90
2022-10-18T16:43:34.972Z,15.88
2022-10-18T16:46:03.382Z,15.80
2022-10-18T16:48:33.479Z,15.72
2022-10-18T16:51:00.978Z,15.65
2022-10-18T16:53:29.020Z,15.58
2022-10-18T16:56:00.226Z,15.50
2022-10-18T16:58:29.633Z,15.45
2022-10-18T17:00:57.129Z,15.37
2022-10-18T17:03:24.860Z,15.28
2022-10-18T17:05:53.148Z,15.20
2022-10-18T17:08:23.885Z,15.13
2022-10-18T17:10:53.285Z,15.06
2022-10-18T17:13:22.035Z,14.97
2022-10-18T17:15:50.306Z,14.89
2022-10-18T17:18:22.179Z,14.83
2022-10-18T17:20:50.146Z,14.75
2022-10-18T17:23:17.357Z,14.74
2022-10-18T17:25:57.580Z,14.65
2022-10-18T17:28:32.310Z,14.61
2022-10-18T17:30:59.345Z,14.55
2022-10-18T17:33:26.310Z,14.48
2022-10-18T17:35:53.292Z,14.43
2022-10-18T17:38:20.723Z,14.42
2022-10-18T17:40:47.669Z,14.38
2022-10-18T17:43:14.787Z,14.31
2022-10-18T17:45:51.240Z,14.30
2022-10-18T17:48:18.113Z,14.29
2022-10-18T17:50:45.669Z,14.22
2022-10-18T17:53:13.458Z,14.15
2022-10-18T17:55:40.976Z,14.09
2022-10-18T17:58:08.281Z,14.05
2022-10-18T18:00:35.359Z,13.98
2022-10-18T18:03:02.834Z,13.94
2022-10-18T18:05:33.206Z,13.90
2022-10-18T18:08:03.998Z,13.86
2022-10-18T18:10:33.820Z,13.78
2022-10-18T18:13:01.963Z,13.74
2022-10-18T18:15:29.140Z,13.75
2022-10-18T18:17:57.422Z,13.68
2022-10-18T18:20:27.221Z,13.69
2022-10-18T18:22:54.486Z,13.62
2022-10-18T18:25:21.558Z,13.64
2022-10-18T18:27:48.779Z,13.61
2022-10-18T18:30:18.199Z,13.57
2022-10-18T18:32:45.466Z,13.57
2022-10-18T18:35:12.879Z,13.56
2022-10-18T18:37:40.135Z,13.51
2022-10-18T18:40:08.287Z,13.43
2022-10-18T18:42:35.786Z,13.50
2022-10-18T18:45:03.173Z,13.48
2022-10-18T18:47:30.278Z,13.42
2022-10-18T18:49:57.309Z,13.44
2022-10-18T18:52:24.415Z,13.39
2022-10-18T18:54:51.993Z,13.33
2022-10-18T18:57:19.051Z,13.35
2022-10-18T18:59:46.758Z,13.31
2022-10-18T19:02:15.539Z,13.24
2022-10-18T19:04:42.755Z,13.26
2022-10-18T19:07:09.995Z,13.24
2022-10-18T19:09:39.072Z,13.20
2022-10-18T19:12:06.571Z,13.15
2022-10-18T19:14:34.021Z,13.12
2022-10-18T19:17:05.238Z,13.10
2022-10-18T19:19:33.129Z,13.12
2022-10-18T19:22:04.065Z,13.11
2022-10-18T19:24:33.391Z,13.08
2022-10-18T19:27:05.105Z,13.06
2022-10-18T19:29:36.037Z,12.99
2022-10-18T19:32:09.942Z,12.97
2022-10-18T19:34:37.314Z,12.97
2022-10-18T19:37:04.634Z,12.95
2022-10-18T19:39:34.702Z,12.95
2022-10-18T19:42:05.838Z,12.92
2022-10-18T19:44:36.420Z,12.88
2022-10-18T19:47:05.012Z,12.86
2022-10-18T19:49:32.632Z,12.86
2022-10-18T19:51:59.879Z,12.83
2022-10-18T19:54:27.212Z,12.79
2022-10-18T19:56:54.391Z,12.81
2022-10-18T19:59:23.182Z,12.73
2022-10-18T20:01:50.799Z,12.76
2022-10-18T20:04:18.426Z,12.73
2022-10-18T20:06:45.741Z,12.74
2022-10-18T20:09:16.250Z,12.69
2022-10-18T20:11:47.311Z,12.63
2022-10-18T20:14:14.522Z,12.67
2022-10-18T20:16:41.557Z,12.60
2022-10-18T20:19:09.877Z,12.64
2022-10-18T20:21:37.024Z,12.59
2022-10-18T20:24:06.335Z,12.59
2022-10-18T20:26:33.869Z,12.62
2022-10-18T20:29:01.000Z,12.59
2022-10-18T20:31:31.073Z,12.56
2022-10-18T20:34:01.025Z,12.54
2022-10-18T20:36:30.157Z,12.54
2022-10-18T20:38:57.582Z,12.52
2022-10-18T20:41:28.605Z,12.49
2022-10-18T20:44:00.171Z,12.48
2022-10-18T20:46:29.853Z,12.45
2022-10-18T20:48:56.959Z,12.46
2022-10-18T20:51:24.291Z,12.42
2022-10-18T20:53:52.257Z,12.41
2022-10-18T20:56:22.033Z,12.34
2022-10-18T20:58:51.145Z,12.41
2022-10-18T21:01:21.353Z,12.35
2022-10-18T21:03:50.777Z,12.40
2022-10-18T21:06:20.033Z,12.41
2022-10-18T21:08:48.439Z,12.41
2022-10-18T21:11:15.514Z,12.44
2022-10-18T21:13:42.489Z,12.40
2022-10-18T21:16:09.748Z,12.42
2022-10-18T21:18:37.919Z,12.46
2022-10-18T21:21:15.101Z,12.47
2022-10-18T21:23:42.148Z,12.49
2022-10-18T21:26:14.870Z,12.50
2022-10-18T21:28:41.971Z,12.52
2022-10-18T21:31:12.970Z,12.43
2022-10-18T21:33:41.718Z,12.54
2022-10-18T21:36:09.212Z,12.49
2022-10-18T21:38:36.391Z,12.52
2022-10-18T21:41:08.352Z,12.44
2022-10-18T21:43:35.219Z,12.47
2022-10-18T21:46:02.683Z,12.49
2022-10-18T21:48:29.630Z,12.44
2022-10-18T21:50:56.525Z,12.45
2022-10-18T21:53:23.429Z,12.43
2022-10-18T21:55:50.365Z,12.43
2022-10-18T21:58:17.271Z,12.32
2022-10-18T22:00:44.233Z,12.36
2022-10-18T22:03:13.187Z,12.36
2022-10-18T22:05:40.626Z,12.37
2022-10-18T22:08:08.130Z,12.30
2022-10-18T22:10:35.011Z,12.31
2022-10-18T22:13:01.910Z,12.30
2022-10-18T22:15:28.789Z,12.31
2022-10-18T22:17:55.680Z,12.30
2022-10-18T22:20:22.502Z,12.26
2022-10-18T22:22:54.209Z,12.27
2022-10-18T22:25:21.050Z,12.27
2022-10-18T22:27:47.881Z,12.20
2022-10-18T22:30:14.800Z,12.24
2022-10-18T22:32:41.668Z,12.18
2022-10-18T22:35:09.031Z,12.21
2022-10-18T22:37:36.194Z,12.21
2022-10-18T22:40:03.562Z,12.15
2022-10-18T22:42:30.440Z,12.19
2022-10-18T22:44:57.268Z,12.18
2022-10-18T22:47:25.416Z,12.18
2022-10-18T22:49:52.339Z,12.13
2022-10-18T22:52:19.141Z,12.15
2022-10-18T22:54:45.968Z,12.15
2022-10-18T22:57:12.780Z,12.12
2022-10-18T22:59:39.592Z,12.12
2022-10-18T23:02:06.464Z,12.05
2022-10-18T23:04:33.718Z,12.10
2022-10-18T23:07:00.608Z,12.08
2022-10-18T23:09:27.489Z,12.04
2022-10-18T23:11:54.350Z,12.07
2022-10-18T23:14:21.219Z,12.06
2022-10-18T23:16:48.112Z,12.04
2022-10-18T23:19:16.418Z,12.04
2022-10-18T23:21:43.519Z,12.03
2022-10-18T23:24:10.379Z,12.03
2022-10-18T23:26:37.288Z,12.04
2022-10-18T23:29:04.306Z,12.03
2022-10-18T23:31:33.422Z,11.97
2022-10-18T23:34:03.957Z,11.94
2022-10-18T23:36:32.815Z,11.96
2022-10-18T23:38:59.799Z,11.95
2022-10-18T23:41:26.923Z,11.90
2022-10-18T23:43:54.319Z,11.89
2022-10-18T23:46:21.919Z,11.86
2022-10-18T23:48:50.064Z,11.83
2022-10-18T23:51:17.647Z,11.79
2022-10-18T23:53:44.660Z,11.73
2022-10-18T23:56:14.353Z,11.70
2022-10-18T23:58:42.696Z,11.65
